Time;durP1;ratioP1;P1;durP2;ratioP2;P2;SDS_P1;SDS_P2;PMS_P1;PMS_P2;Temp;Humidity;BMP_temperature;BMP_pressure;BME280_temperature;BME280_humidity;BME280_pressure;Samples;Min_cycle;Max_cycle;Signal;HPM_P1;HPM_P2
2023/04/03 00:02:14;;;;;;;2.58;0.90;;;3.40;99.90;;;;;;5064821;28;20072;-76
2023/04/03 00:04:40;;;;;;;2.42;1.17;;;3.40;99.90;;;;;;5053243;28;20127;-76
2023/04/03 00:07:06;;;;;;;1.35;0.80;;;3.30;99.90;;;;;;5065130;28;20040;-76
2023/04/03 00:09:31;;;;;;;1.55;0.85;;;3.40;99.90;;;;;;5068168;28;20451;-76
2023/04/03 00:11:57;;;;;;;4.35;1.08;;;3.30;99.90;;;;;;5055263;28;20029;-76
2023/04/03 00:14:23;;;;;;;3.25;0.90;;;3.30;99.90;;;;;;5049806;28;20496;-76
2023/04/03 00:16:48;;;;;;;2.95;0.85;;;3.30;99.90;;;;;;5058311;28;20095;-76
2023/04/03 00:19:14;;;;;;;2.97;1.10;;;3.20;99.90;;;;;;5053881;28;20033;-76
2023/04/03 00:21:40;;;;;;;3.97;1.13;;;3.10;99.90;;;;;;5055022;28;20082;-76
2023/04/03 00:24:06;;;;;;;2.35;0.90;;;3.10;99.90;;;;;;5054450;28;20044;-76
2023/04/03 00:26:31;;;;;;;3.72;1.00;;;3.00;99.90;;;;;;5054729;28;20550;-76
2023/04/03 00:28:57;;;;;;;3.03;1.00;;;3.00;99.90;;;;;;5037753;28;20040;-76
2023/04/03 00:31:23;;;;;;;5.20;1.17;;;2.90;99.90;;;;;;5059517;28;20511;-76
2023/04/03 00:33:48;;;;;;;2.95;0.80;;;2.90;99.90;;;;;;5056985;28;20120;-75
2023/04/03 00:36:15;;;;;;;2.08;0.80;;;3.00;99.90;;;;;;5057619;28;20039;-76
2023/04/03 00:38:41;;;;;;;3.47;0.80;;;2.90;99.90;;;;;;5073672;28;20068;-76
2023/04/03 00:41:07;;;;;;;4.07;1.17;;;2.90;99.90;;;;;;5054038;28;20060;-75
2023/04/03 00:43:33;;;;;;;2.42;0.88;;;2.90;99.90;;;;;;5039501;28;20036;-75
2023/04/03 00:45:59;;;;;;;2.28;0.88;;;2.90;99.90;;;;;;5058052;28;20040;-75
2023/04/03 00:48:32;;;;;;;3.22;1.00;;;2.90;99.90;;;;;;5056819;28;20072;-75
2023/04/03 00:50:59;;;;;;;2.80;0.90;;;2.90;99.90;;;;;;5055287;28;20525;-75
2023/04/03 00:53:30;;;;;;;3.72;1.25;;;2.80;99.90;;;;;;5057673;28;20039;-76
2023/04/03 00:55:57;;;;;;;4.50;1.10;;;2.80;99.90;;;;;;5073573;28;20385;-75
2023/04/03 00:58:30;;;;;;;3.13;1.00;;;2.80;99.90;;;;;;5074490;28;20389;-75
2023/04/03 01:00:58;;;;;;;4.72;1.00;;;2.80;99.90;;;;;;5074191;28;20492;-75
2023/04/03 01:03:25;;;;;;;2.47;0.90;;;2.80;99.90;;;;;;5072528;28;20078;-75
2023/04/03 01:05:51;;;;;;;3.75;1.13;;;2.70;99.90;;;;;;5070774;28;20512;-76
2023/04/03 01:08:16;;;;;;;1.52;0.95;;;2.70;99.90;;;;;;5037421;28;20037;-75
2023/04/03 01:10:43;;;;;;;3.53;1.52;;;2.70;99.90;;;;;;5052340;28;20110;-76
2023/04/03 01:13:41;;;;;;;5.00;1.15;;;2.70;99.90;;;;;;5057289;28;20041;-75
2023/04/03 01:16:07;;;;;;;3.90;1.20;;;2.70;99.90;;;;;;5045935;28;20508;-75
2023/04/03 01:18:35;;;;;;;5.70;1.10;;;2.60;99.90;;;;;;5073991;28;20098;-75
2023/04/03 01:21:27;;;;;;;3.25;1.10;;;2.60;99.90;;;;;;5054500;28;20036;-75
2023/04/03 01:24:33;;;;;;;4.67;1.23;;;2.60;99.90;;;;;;5053054;28;20040;-76
2023/04/03 01:27:00;;;;;;;3.97;1.70;;;2.50;99.90;;;;;;5056071;28;20040;-75
2023/04/03 01:29:26;;;;;;;3.22;1.02;;;2.40;99.90;;;;;;5061077;28;20050;-75
2023/04/03 01:32:01;;;;;;;4.35;1.15;;;2.30;99.90;;;;;;5046691;28;20397;-75
2023/04/03 01:34:28;;;;;;;6.65;1.55;;;2.30;99.90;;;;;;5037136;28;20045;-75
2023/04/03 01:36:54;;;;;;;4.40;1.17;;;2.20;99.90;;;;;;5053676;28;20120;-75
2023/04/03 01:39:20;;;;;;;5.72;1.52;;;2.20;99.90;;;;;;5054286;28;20116;-75
2023/04/03 01:41:46;;;;;;;4.22;1.35;;;2.10;99.90;;;;;;5053589;28;20044;-75
2023/04/03 01:44:12;;;;;;;2.90;1.20;;;2.10;99.90;;;;;;5046290;28;20549;-75
2023/04/03 01:46:38;;;;;;;6.05;1.58;;;2.20;99.90;;;;;;5073415;28;20095;-75
2023/04/03 01:49:04;;;;;;;6.22;1.30;;;2.20;99.90;;;;;;5069614;28;20049;-75
2023/04/03 01:51:30;;;;;;;7.47;1.25;;;2.10;99.90;;;;;;5042010;28;20557;-75
2023/04/03 01:53:55;;;;;;;4.38;1.40;;;2.10;99.90;;;;;;5071633;28;20120;-76
2023/04/03 01:56:21;;;;;;;3.70;1.15;;;2.00;99.90;;;;;;5072931;28;20113;-76
2023/04/03 01:58:47;;;;;;;4.38;1.42;;;2.00;99.90;;;;;;5051861;28;20125;-75
2023/04/03 02:01:12;;;;;;;4.97;1.70;;;2.00;99.90;;;;;;5051167;28;20043;-75
2023/04/03 02:03:38;;;;;;;4.50;1.48;;;1.90;99.90;;;;;;5042995;28;20553;-75
2023/04/03 02:06:04;;;;;;;6.15;1.55;;;1.90;99.90;;;;;;5056184;28;20036;-75
2023/04/03 02:08:30;;;;;;;4.65;1.40;;;1.80;99.90;;;;;;5072731;28;20048;-75
2023/04/03 02:10:55;;;;;;;4.75;1.55;;;1.80;99.90;;;;;;5072054;28;20119;-75
2023/04/03 02:13:21;;;;;;;3.22;1.20;;;1.90;99.90;;;;;;5068950;28;20573;-75
2023/04/03 02:15:47;;;;;;;6.25;1.13;;;1.90;99.90;;;;;;5072735;28;20516;-75
2023/04/03 02:18:13;;;;;;;3.17;1.15;;;1.80;99.90;;;;;;5072516;28;20504;-75
2023/04/03 02:20:38;;;;;;;3.53;1.50;;;1.80;99.90;;;;;;5071698;28;20033;-75
2023/04/03 02:23:04;;;;;;;3.53;1.17;;;1.70;99.90;;;;;;5071558;28;20090;-75
2023/04/03 02:25:31;;;;;;;5.47;1.20;;;1.70;99.90;;;;;;5055973;28;20401;-75
2023/04/03 02:27:56;;;;;;;4.32;1.27;;;1.70;99.90;;;;;;5072637;28;20056;-75
2023/04/03 02:30:22;;;;;;;5.65;1.48;;;1.70;99.90;;;;;;5046176;28;20041;-75
2023/04/03 02:32:48;;;;;;;4.38;1.52;;;1.70;99.90;;;;;;5060627;28;20540;-75
2023/04/03 02:35:13;;;;;;;3.83;1.20;;;1.70;99.90;;;;;;5057804;28;20131;-75
2023/04/03 02:37:39;;;;;;;5.80;1.45;;;1.60;99.90;;;;;;5052065;28;20166;-75
2023/04/03 02:40:06;;;;;;;5.05;1.45;;;1.60;99.90;;;;;;5067331;28;20036;-75
2023/04/03 02:42:32;;;;;;;4.22;1.10;;;1.60;99.90;;;;;;5065750;28;20041;-75
2023/04/03 02:44:57;;;;;;;4.70;1.38;;;1.60;99.90;;;;;;5068710;28;20036;-75
2023/04/03 02:47:23;;;;;;;5.68;1.40;;;1.50;99.90;;;;;;5084405;28;20552;-75
2023/04/03 02:49:48;;;;;;;5.28;1.35;;;1.50;99.90;;;;;;5065669;28;20456;-75
2023/04/03 02:52:14;;;;;;;4.93;1.38;;;1.50;99.90;;;;;;5061142;28;20152;-75
2023/04/03 02:54:40;;;;;;;4.15;1.20;;;1.50;99.90;;;;;;5071879;28;20076;-75
2023/04/03 02:57:08;;;;;;;4.70;1.30;;;1.40;99.90;;;;;;5070309;28;20500;-75
2023/04/03 02:59:35;;;;;;;4.55;1.40;;;1.50;99.90;;;;;;5071841;28;20080;-75
2023/04/03 03:02:01;;;;;;;4.43;1.42;;;1.40;99.90;;;;;;5052368;28;20036;-75
2023/04/03 03:04:26;;;;;;;4.00;1.50;;;1.40;99.90;;;;;;5071594;28;20050;-75
2023/04/03 03:06:52;;;;;;;4.63;1.50;;;1.40;99.90;;;;;;5067983;28;20029;-75
2023/04/03 03:09:18;;;;;;;4.88;1.40;;;1.40;99.90;;;;;;5069968;28;20409;-75
2023/04/03 03:11:44;;;;;;;4.93;1.67;;;1.50;99.90;;;;;;5055183;28;20381;-75
2023/04/03 03:14:10;;;;;;;5.18;1.50;;;1.40;99.90;;;;;;5050872;28;20044;-75
2023/04/03 03:16:35;;;;;;;7.57;1.52;;;1.40;99.90;;;;;;5051950;28;20041;-75
2023/04/03 03:19:01;;;;;;;3.28;1.33;;;1.40;99.90;;;;;;5064108;28;20037;-75
2023/04/03 03:21:26;;;;;;;4.30;1.52;;;1.30;99.90;;;;;;5069914;28;20095;-75
2023/04/03 03:23:52;;;;;;;5.45;1.20;;;1.30;99.90;;;;;;5065131;28;20037;-75
2023/04/03 03:26:17;;;;;;;4.72;1.48;;;1.20;99.90;;;;;;5051098;28;20485;-75
2023/04/03 03:28:43;;;;;;;4.78;1.45;;;1.20;99.90;;;;;;5043434;28;20037;-75
2023/04/03 03:31:09;;;;;;;7.28;1.48;;;1.20;99.90;;;;;;5052754;28;20113;-75
2023/04/03 03:33:35;;;;;;;5.35;1.23;;;1.20;99.90;;;;;;5049838;28;20048;-75
2023/04/03 03:36:01;;;;;;;5.55;1.58;;;1.20;99.90;;;;;;5052210;28;20028;-75
2023/04/03 03:38:26;;;;;;;4.18;1.50;;;1.30;99.90;;;;;;5085279;28;20106;-75
2023/04/03 03:40:52;;;;;;;5.75;1.15;;;1.30;99.90;;;;;;5048770;28;20035;-75
2023/04/03 03:43:18;;;;;;;5.55;1.77;;;1.20;99.90;;;;;;5050123;28;20048;-75
2023/04/03 03:45:45;;;;;;;5.40;1.40;;;1.20;99.90;;;;;;5071559;28;20444;-75
2023/04/03 03:48:11;;;;;;;6.07;1.60;;;1.10;99.90;;;;;;5069200;28;20078;-75
2023/04/03 03:50:37;;;;;;;5.65;1.50;;;1.20;99.90;;;;;;5071243;28;20114;-74
2023/04/03 03:53:02;;;;;;;5.40;1.70;;;1.10;99.90;;;;;;5070491;28;20041;-75
2023/04/03 03:55:28;;;;;;;4.78;1.50;;;1.10;99.90;;;;;;5068651;28;20037;-75
2023/04/03 03:57:54;;;;;;;6.53;1.80;;;1.10;99.90;;;;;;5068090;28;20130;-74
2023/04/03 04:00:20;;;;;;;5.95;1.80;;;1.10;99.90;;;;;;5062945;28;20032;-74
2023/04/03 04:02:45;;;;;;;7.32;1.60;;;1.10;99.90;;;;;;5057670;28;20098;-74
2023/04/03 04:05:11;;;;;;;4.10;1.70;;;1.20;99.90;;;;;;5043596;28;20398;-74
2023/04/03 04:07:37;;;;;;;6.18;2.20;;;1.20;99.90;;;;;;5049750;28;20112;-74
2023/04/03 04:10:03;;;;;;;5.22;1.85;;;1.20;99.90;;;;;;5065134;28;20616;-74
2023/04/03 04:12:29;;;;;;;8.15;1.90;;;1.10;99.90;;;;;;5046334;28;20040;-74
2023/04/03 04:14:54;;;;;;;8.85;2.10;;;1.20;99.90;;;;;;5070367;28;20089;-74
2023/04/03 04:17:20;;;;;;;6.32;2.35;;;1.10;99.90;;;;;;5057262;28;20037;-74
2023/04/03 04:19:46;;;;;;;6.70;2.15;;;1.00;99.90;;;;;;5068081;28;20047;-75
2023/04/03 04:22:12;;;;;;;4.60;1.60;;;1.00;99.90;;;;;;5051105;28;20036;-75
2023/04/03 04:24:37;;;;;;;8.23;2.00;;;1.00;99.90;;;;;;5057149;28;20094;-75
2023/04/03 04:27:03;;;;;;;6.82;1.98;;;1.00;99.90;;;;;;5045790;28;20145;-75
2023/04/03 04:29:28;;;;;;;54.60;49.15;;;1.00;99.90;;;;;;5042572;28;20032;-75
2023/04/03 04:31:54;;;;;;;8.85;3.30;;;1.00;99.90;;;;;;5052758;28;20397;-75
2023/04/03 04:34:20;;;;;;;8.75;4.25;;;1.00;99.90;;;;;;5069675;28;20070;-75
2023/04/03 04:36:45;;;;;;;6.88;2.95;;;0.90;99.90;;;;;;5052104;28;20041;-75
2023/04/03 04:39:11;;;;;;;5.38;2.15;;;0.90;99.90;;;;;;5056123;28;20036;-74
2023/04/03 04:41:36;;;;;;;9.07;3.67;;;0.90;99.90;;;;;;5056008;28;20048;-75
2023/04/03 04:44:02;;;;;;;7.57;2.47;;;0.90;99.90;;;;;;5053875;28;20040;-74
2023/04/03 04:46:27;;;;;;;4.93;2.28;;;0.90;99.90;;;;;;5039368;28;20047;-76
2023/04/03 04:48:53;;;;;;;6.80;2.00;;;0.90;99.90;;;;;;5065430;28;20106;-74
2023/04/03 04:51:19;;;;;;;6.78;2.05;;;0.90;99.90;;;;;;5040767;28;20128;-74
2023/04/03 04:53:44;;;;;;;6.25;1.90;;;0.90;99.90;;;;;;5055536;28;20044;-74
2023/04/03 04:56:10;;;;;;;4.50;2.00;;;0.90;99.90;;;;;;5061223;28;20041;-74
2023/04/03 04:58:36;;;;;;;6.43;2.10;;;0.80;99.90;;;;;;5065425;28;20040;-74
2023/04/03 05:01:07;;;;;;;7.53;2.58;;;0.80;99.90;;;;;;5071763;28;20067;-74
2023/04/03 05:03:33;;;;;;;8.48;5.15;;;0.80;99.90;;;;;;5071240;28;20374;-74
2023/04/03 05:05:59;;;;;;;9.07;2.65;;;0.80;99.90;;;;;;5064883;28;20043;-74
2023/04/03 05:08:25;;;;;;;6.35;2.40;;;0.80;99.90;;;;;;5038285;28;20041;-74
2023/04/03 05:10:50;;;;;;;10.02;2.42;;;0.70;99.90;;;;;;5052188;28;20044;-74
2023/04/03 05:13:16;;;;;;;6.65;2.38;;;0.80;99.90;;;;;;5065323;28;20052;-74
2023/04/03 05:15:42;;;;;;;6.88;2.13;;;0.70;99.90;;;;;;5046360;28;20033;-74
2023/04/03 05:18:07;;;;;;;7.57;2.45;;;0.80;99.90;;;;;;5042711;28;20037;-75
2023/04/03 05:20:33;;;;;;;8.82;2.35;;;0.80;99.90;;;;;;5049707;28;20040;-74
2023/04/03 05:22:59;;;;;;;8.02;2.92;;;0.70;99.90;;;;;;5071347;28;20052;-74
2023/04/03 05:25:25;;;;;;;7.63;2.15;;;0.70;99.90;;;;;;5068987;28;20036;-74
2023/04/03 05:27:51;;;;;;;7.53;2.47;;;0.70;99.90;;;;;;5046209;28;20068;-74
2023/04/03 05:30:17;;;;;;;8.80;2.50;;;0.80;99.90;;;;;;5050144;28;20122;-74
2023/04/03 05:32:42;;;;;;;6.68;2.38;;;0.70;99.90;;;;;;5072451;28;20037;-74
2023/04/03 05:35:09;;;;;;;7.55;2.60;;;0.80;99.90;;;;;;5064290;28;20060;-74
2023/04/03 05:37:35;;;;;;;10.05;3.17;;;0.70;99.90;;;;;;5041284;28;20043;-74
2023/04/03 05:40:01;;;;;;;10.85;2.88;;;0.70;99.90;;;;;;5063729;28;20043;-74
2023/04/03 05:42:26;;;;;;;9.18;3.40;;;0.70;99.90;;;;;;5036671;28;20485;-74
2023/04/03 05:44:52;;;;;;;8.45;2.50;;;0.70;99.90;;;;;;5066156;28;20044;-74
2023/04/03 05:47:18;;;;;;;9.05;2.92;;;0.70;99.90;;;;;;5069340;28;20123;-74
2023/04/03 05:49:45;;;;;;;10.07;3.00;;;0.70;99.90;;;;;;5054260;28;20116;-74
2023/04/03 05:52:31;;;;;;;7.43;3.00;;;0.80;99.90;;;;;;5051496;28;20044;-74
2023/04/03 05:54:57;;;;;;;9.88;3.97;;;0.80;99.90;;;;;;5085392;28;20044;-74
2023/04/03 05:57:23;;;;;;;9.55;2.78;;;0.90;99.90;;;;;;5072049;28;20041;-74
2023/04/03 05:59:49;;;;;;;8.10;2.67;;;0.90;99.90;;;;;;5049461;28;20374;-74
2023/04/03 06:02:18;;;;;;;8.05;2.92;;;0.90;99.90;;;;;;5071985;28;20043;-74
2023/04/03 06:04:44;;;;;;;8.30;2.78;;;0.90;99.90;;;;;;5053243;28;20035;-74
2023/04/03 06:07:13;;;;;;;7.40;2.60;;;1.00;99.90;;;;;;5068945;28;20036;-75
2023/04/03 06:09:38;;;;;;;8.43;2.83;;;1.00;99.90;;;;;;5069000;28;20481;-74
2023/04/03 06:12:04;;;;;;;10.35;2.72;;;1.20;99.90;;;;;;5039891;28;20120;-74
2023/04/03 06:14:30;;;;;;;8.45;2.95;;;1.20;99.90;;;;;;5052390;28;20041;-74
2023/04/03 06:16:56;;;;;;;7.40;2.15;;;1.20;99.90;;;;;;5069503;28;20123;-74
2023/04/03 06:19:22;;;;;;;7.68;2.60;;;1.20;99.90;;;;;;5070219;28;20072;-74
2023/04/03 06:21:47;;;;;;;11.38;2.88;;;1.30;99.90;;;;;;5070326;28;20037;-74
2023/04/03 06:24:15;;;;;;;9.75;2.90;;;1.30;99.90;;;;;;5065035;28;20079;-74
2023/04/03 06:26:41;;;;;;;7.82;2.45;;;1.40;99.90;;;;;;5070690;28;20044;-74
2023/04/03 06:29:07;;;;;;;7.68;2.35;;;1.40;99.90;;;;;;5071232;28;20037;-74
2023/04/03 06:31:33;;;;;;;8.73;3.15;;;1.40;99.90;;;;;;5068056;28;20451;-75
2023/04/03 06:33:59;;;;;;;9.50;2.38;;;1.50;99.90;;;;;;5051776;28;20079;-74
2023/04/03 06:36:25;;;;;;;11.07;2.67;;;1.60;99.90;;;;;;5039692;28;20055;-75
2023/04/03 06:38:51;;;;;;;8.43;3.00;;;1.60;99.90;;;;;;5066127;28;20029;-74
2023/04/03 06:41:17;;;;;;;12.23;3.45;;;1.60;99.90;;;;;;5050365;28;20041;-75
2023/04/03 06:43:43;;;;;;;7.90;2.38;;;1.70;99.90;;;;;;5058102;28;20036;-74
2023/04/03 06:46:21;;;;;;;9.40;2.50;;;1.70;99.90;;;;;;5048773;28;20413;-74
2023/04/03 06:48:48;;;;;;;8.50;3.05;;;1.80;99.90;;;;;;5068639;28;20123;-74
2023/04/03 06:51:24;;;;;;;10.45;3.00;;;1.90;99.90;;;;;;5050552;28;20884;-74
2023/04/03 06:53:51;;;;;;;8.82;2.47;;;2.00;99.90;;;;;;5052798;28;20405;-75
2023/04/03 06:56:17;;;;;;;7.78;2.55;;;2.00;99.90;;;;;;5059621;28;20036;-75
2023/04/03 06:58:43;;;;;;;8.20;2.92;;;2.00;99.90;;;;;;5053585;28;20493;-75
2023/04/03 07:01:10;;;;;;;8.43;2.75;;;2.10;99.90;;;;;;5049311;28;20044;-74
2023/04/03 07:03:36;;;;;;;5.85;2.33;;;2.10;99.90;;;;;;5052162;28;20040;-74
2023/04/03 07:06:03;;;;;;;7.60;2.00;;;2.30;99.90;;;;;;5069899;28;20036;-74
2023/04/03 07:08:30;;;;;;;10.88;2.92;;;2.40;99.90;;;;;;5057777;28;20048;-74
2023/04/03 07:10:56;;;;;;;8.60;2.30;;;2.50;99.90;;;;;;5038793;28;20401;-75
2023/04/03 07:13:21;;;;;;;10.25;2.58;;;2.60;99.90;;;;;;5051662;28;20041;-75
2023/04/03 07:15:48;;;;;;;8.18;2.13;;;2.60;99.90;;;;;;5046466;28;20048;-75
2023/04/03 07:18:13;;;;;;;6.53;2.10;;;2.70;99.90;;;;;;5066807;28;20510;-75
2023/04/03 07:20:40;;;;;;;6.70;2.05;;;2.70;99.90;;;;;;5067430;28;20075;-75
2023/04/03 07:23:05;;;;;;;8.20;2.45;;;2.80;99.90;;;;;;5039745;28;20477;-75
2023/04/03 07:25:31;;;;;;;6.63;2.25;;;2.90;99.90;;;;;;5040707;28;20041;-75
2023/04/03 07:27:57;;;;;;;7.60;2.58;;;3.00;99.90;;;;;;5042448;28;20559;-75
2023/04/03 07:30:23;;;;;;;7.43;2.33;;;3.00;99.90;;;;;;5084748;28;20492;-75
2023/04/03 07:32:48;;;;;;;8.85;2.90;;;3.00;99.90;;;;;;5049800;28;20048;-75
2023/04/03 07:35:14;;;;;;;10.32;2.53;;;3.10;99.90;;;;;;5053713;28;20396;-75
2023/04/03 07:37:40;;;;;;;6.35;2.40;;;3.20;99.90;;;;;;5053058;28;20033;-75
2023/04/03 07:40:08;;;;;;;7.35;2.33;;;3.20;99.90;;;;;;5035247;28;20041;-75
2023/04/03 07:42:34;;;;;;;6.72;1.90;;;3.30;99.90;;;;;;5046229;28;20519;-75
2023/04/03 07:45:01;;;;;;;8.10;2.10;;;3.40;99.90;;;;;;5049691;28;20436;-75
2023/04/03 07:47:27;;;;;;;8.05;2.00;;;3.60;99.90;;;;;;5054000;28;20056;-75
2023/04/03 07:49:53;;;;;;;6.13;2.13;;;3.60;99.90;;;;;;5041156;28;20029;-76
2023/04/03 07:52:18;;;;;;;8.57;1.80;;;3.70;99.90;;;;;;5038833;28;20409;-69
2023/04/03 07:54:44;;;;;;;7.28;2.30;;;3.80;99.90;;;;;;5055433;28;20054;-80
2023/04/03 07:57:09;;;;;;;5.80;1.67;;;3.90;99.90;;;;;;5042593;28;20032;-78
2023/04/03 07:59:35;;;;;;;7.25;2.08;;;4.00;99.90;;;;;;5056820;28;20033;-77
2023/04/03 08:02:01;;;;;;;5.82;1.88;;;4.10;99.90;;;;;;5055002;28;20040;-77
2023/04/03 08:04:26;;;;;;;7.32;2.10;;;4.10;99.90;;;;;;5055181;28;20044;-77
2023/04/03 08:06:52;;;;;;;7.63;1.70;;;4.30;99.90;;;;;;5055165;28;20045;-77
2023/04/03 08:09:19;;;;;;;7.30;1.85;;;4.40;99.90;;;;;;5056329;28;20045;-77
2023/04/03 08:11:45;;;;;;;8.32;2.28;;;4.40;99.90;;;;;;5053634;28;20051;-77
2023/04/03 08:14:16;;;;;;;7.53;1.80;;;4.50;99.90;;;;;;5064686;28;20040;-77
2023/04/03 08:16:42;;;;;;;3.33;1.23;;;4.50;99.90;;;;;;5074967;28;20039;-77
2023/04/03 08:19:08;;;;;;;5.97;1.77;;;4.50;99.90;;;;;;5045928;28;20043;-76
2023/04/03 08:21:34;;;;;;;5.45;1.55;;;4.70;99.90;;;;;;5042944;28;20033;-76
2023/04/03 08:23:59;;;;;;;8.32;1.83;;;4.90;99.90;;;;;;5054623;28;20098;-76
2023/04/03 08:26:26;;;;;;;7.75;2.13;;;4.90;99.90;;;;;;5038228;28;20114;-77
2023/04/03 08:28:52;;;;;;;5.13;1.88;;;5.10;99.90;;;;;;5037975;28;20713;-78
2023/04/03 08:31:19;;;;;;;6.50;1.90;;;5.30;99.90;;;;;;5046593;28;20036;-78
2023/04/03 08:33:46;;;;;;;5.57;1.50;;;5.30;99.90;;;;;;5054269;28;20043;-78
2023/04/03 08:36:22;;;;;;;3.67;1.20;;;5.50;99.90;;;;;;5054660;28;20091;-78
2023/04/03 08:38:49;;;;;;;5.97;1.60;;;5.70;99.90;;;;;;5054041;28;20052;-78
2023/04/03 08:41:33;;;;;;;6.55;1.75;;;5.80;99.90;;;;;;5042104;28;20083;-78
2023/04/03 08:44:18;;;;;;;6.50;1.88;;;5.70;99.90;;;;;;5052634;28;20561;-78
2023/04/03 08:47:09;;;;;;;4.88;1.30;;;5.80;99.90;;;;;;5048825;28;20390;-78
2023/04/03 08:50:03;;;;;;;4.03;1.65;;;5.80;99.90;;;;;;5073492;28;20045;-78
2023/04/03 08:52:48;;;;;;;4.72;1.30;;;5.90;99.90;;;;;;5057573;28;20473;-79
2023/04/03 08:55:25;;;;;;;4.75;1.40;;;6.10;99.90;;;;;;5054975;28;20048;-77
2023/04/03 08:58:00;;;;;;;5.47;1.50;;;6.20;99.90;;;;;;5061374;28;20040;-76
2023/04/03 09:00:28;;;;;;;5.90;1.50;;;6.30;99.90;;;;;;5074427;28;20392;-77
2023/04/03 09:02:56;;;;;;;4.82;1.30;;;6.20;99.90;;;;;;5054612;28;20059;-77
2023/04/03 09:05:46;;;;;;;4.88;1.20;;;6.20;99.90;;;;;;5069535;28;20048;-76
2023/04/03 09:08:26;;;;;;;4.88;1.30;;;6.40;99.90;;;;;;5073000;28;20082;-77
2023/04/03 09:11:16;;;;;;;5.72;1.60;;;6.60;99.90;;;;;;5073972;28;20040;-77
2023/04/03 09:13:47;;;;;;;3.67;1.15;;;6.60;99.90;;;;;;5056621;28;20400;-77
2023/04/03 09:16:47;;;;;;;4.82;1.10;;;6.60;99.90;;;;;;5040127;28;20040;-77
2023/04/03 09:19:28;;;;;;;3.42;0.93;;;6.90;99.90;;;;;;5037205;28;20493;-78
2023/04/03 09:22:10;;;;;;;4.35;0.88;;;7.10;99.90;;;;;;5049866;28;20086;-77
2023/04/03 09:24:36;;;;;;;7.50;1.40;;;7.30;99.90;;;;;;5053780;28;20049;-78
2023/04/03 09:27:07;;;;;;;4.10;1.20;;;7.20;99.90;;;;;;5052999;28;20037;-78
2023/04/03 09:29:38;;;;;;;4.18;1.10;;;7.30;97.20;;;;;;5063900;28;20396;-78
2023/04/03 09:32:27;;;;;;;3.53;1.05;;;7.30;99.90;;;;;;5073793;28;20404;-78
2023/04/03 09:34:56;;;;;;;2.25;0.85;;;7.40;99.90;;;;;;5055030;28;20032;-78
2023/04/03 09:37:43;;;;;;;3.63;0.98;;;7.50;99.90;;;;;;5068057;28;20044;-78
2023/04/03 09:40:27;;;;;;;5.00;1.05;;;7.70;99.90;;;;;;5036991;28;20388;-78
2023/04/03 09:42:58;;;;;;;2.88;1.10;;;7.60;99.90;;;;;;5051759;28;20040;-78
2023/04/03 09:45:26;;;;;;;5.25;1.40;;;7.70;99.90;;;;;;5063014;28;20047;-78
2023/04/03 09:48:15;;;;;;;4.97;1.35;;;7.60;99.50;;;;;;5044915;28;20044;-78
2023/04/03 09:50:50;;;;;;;3.55;0.88;;;7.90;96.70;;;;;;5049414;28;20513;-78
2023/04/03 09:53:36;;;;;;;3.15;0.90;;;7.90;99.50;;;;;;5069999;28;20084;-78
2023/04/03 09:56:15;;;;;;;3.35;0.80;;;8.10;96.80;;;;;;5055689;28;20044;-78
2023/04/03 09:58:48;;;;;;;3.45;1.00;;;8.10;95.90;;;;;;5073217;28;20079;-78
2023/04/03 10:01:33;;;;;;;5.75;1.00;;;8.10;96.30;;;;;;5073245;28;20531;-78
2023/04/03 10:04:14;;;;;;;3.13;0.90;;;8.30;95.50;;;;;;5064454;28;20032;-78
2023/04/03 10:06:46;;;;;;;2.50;0.82;;;8.30;96.60;;;;;;5062240;28;20055;-78
2023/04/03 10:09:18;;;;;;;2.05;0.90;;;8.40;96.60;;;;;;5072876;28;20404;-78
2023/04/03 10:11:59;;;;;;;3.17;0.93;;;8.50;92.40;;;;;;5046429;28;20506;-78
2023/04/03 10:14:26;;;;;;;4.22;0.93;;;8.50;91.90;;;;;;5052832;28;20037;-78
2023/04/03 10:17:03;;;;;;;3.83;1.00;;;8.40;94.40;;;;;;5059606;28;20519;-78
2023/04/03 10:19:42;;;;;;;2.67;1.00;;;8.50;93.00;;;;;;5044992;28;20040;-78
2023/04/03 10:22:34;;;;;;;0.82;0.63;;;8.50;94.00;;;;;;5057641;28;20089;-77
2023/04/03 10:25:08;;;;;;;2.42;0.85;;;8.70;92.70;;;;;;5045318;28;20028;-78
2023/04/03 10:27:39;;;;;;;3.05;0.90;;;8.70;91.20;;;;;;5055902;28;20032;-77
2023/04/03 10:30:41;;;;;;;3.28;1.00;;;8.70;91.60;;;;;;5063581;28;20036;-78
2023/04/03 10:33:33;;;;;;;3.40;0.90;;;8.80;87.80;;;;;;5035754;28;20051;-68
2023/04/03 10:36:25;;;;;;;4.00;0.90;;;8.80;90.30;;;;;;5055829;28;20036;-78
2023/04/03 10:39:14;;;;;;;2.20;0.80;;;8.80;89.90;;;;;;5052307;28;20036;-78
2023/04/03 10:42:10;;;;;;;2.80;0.90;;;8.80;90.10;;;;;;5057707;28;20028;-78
2023/04/03 10:44:56;;;;;;;2.83;0.90;;;8.80;87.60;;;;;;5054939;28;20048;-78
2023/04/03 10:47:27;;;;;;;3.05;1.00;;;8.70;87.60;;;;;;5072314;28;20089;-80
2023/04/03 10:50:26;;;;;;;1.85;0.90;;;8.70;93.40;;;;;;5048297;28;20041;-76
2023/04/03 10:53:03;;;;;;;3.97;0.93;;;8.80;93.30;;;;;;5052262;28;20382;-78
2023/04/03 10:56:08;;;;;;;3.35;1.20;;;8.90;93.00;;;;;;5041816;28;20496;-78
2023/04/03 10:58:44;;;;;;;3.10;0.93;;;9.00;94.00;;;;;;5063969;28;20052;-78
2023/04/03 11:01:16;;;;;;;3.15;1.20;;;9.00;84.30;;;;;;5069087;28;20036;-78
2023/04/03 11:04:03;;;;;;;5.05;1.08;;;8.90;89.30;;;;;;5072324;28;20392;-78
2023/04/03 11:06:37;;;;;;;3.63;1.17;;;9.10;92.20;;;;;;5072278;28;20079;-71
2023/04/03 11:09:18;;;;;;;2.08;1.00;;;9.10;90.30;;;;;;5052218;28;20401;-79
2023/04/03 11:11:44;;;;;;;3.17;1.20;;;9.10;91.10;;;;;;5035314;28;20029;-79
2023/04/03 11:14:16;;;;;;;3.50;1.20;;;9.10;77.80;;;;;;5069783;28;20509;-78
2023/04/03 11:16:46;;;;;;;2.15;0.70;;;9.20;91.10;;;;;;5072018;28;20076;-79
2023/04/03 11:19:21;;;;;;;3.33;1.00;;;9.30;84.20;;;;;;5049454;28;20448;-77
2023/04/03 11:22:09;;;;;;;2.03;0.90;;;9.20;84.10;;;;;;5074532;28;20051;-78
2023/04/03 11:24:41;;;;;;;2.55;0.95;;;9.30;87.30;;;;;;5077106;28;20048;-78
2023/04/03 11:27:18;;;;;;;3.35;0.98;;;9.20;82.10;;;;;;5078491;28;20059;-77
2023/04/03 11:29:46;;;;;;;3.20;0.88;;;9.20;85.90;;;;;;5058228;28;20033;-78
2023/04/03 11:32:32;;;;;;;4.07;1.00;;;9.20;84.70;;;;;;5078271;28;20040;-78
2023/04/03 11:35:01;;;;;;;4.50;0.90;;;9.20;78.60;;;;;;5077051;28;20037;-78
2023/04/03 11:37:44;;;;;;;4.00;1.17;;;9.30;85.10;;;;;;5077659;28;20072;-78
2023/04/03 11:40:24;;;;;;;2.28;0.90;;;9.20;85.40;;;;;;5063700;28;20029;-78
2023/04/03 11:42:55;;;;;;;5.25;1.17;;;9.10;83.60;;;;;;5070218;28;20084;-78
2023/04/03 11:45:26;;;;;;;3.28;1.05;;;9.20;90.10;;;;;;5077033;28;20033;-77
2023/04/03 11:47:53;;;;;;;3.47;1.10;;;9.20;81.20;;;;;;5060518;28;20705;-78
2023/04/03 11:50:46;;;;;;;2.72;0.95;;;9.30;82.00;;;;;;5078229;28;20036;-77
2023/04/03 11:53:14;;;;;;;3.25;1.10;;;9.30;81.20;;;;;;5060982;28;20049;-78
2023/04/03 11:55:49;;;;;;;2.22;1.00;;;9.30;82.10;;;;;;5056021;28;20067;-78
2023/04/03 11:58:18;;;;;;;3.70;1.00;;;9.30;84.80;;;;;;5072793;28;20108;-78
2023/04/03 12:00:47;;;;;;;2.88;1.00;;;9.30;76.20;;;;;;5061400;28;20040;-78
2023/04/03 12:03:26;;;;;;;2.08;0.93;;;9.30;74.30;;;;;;5077958;28;20051;-78
2023/04/03 12:05:51;;;;;;;3.10;1.10;;;9.30;72.20;;;;;;5061436;28;20131;-78
2023/04/03 12:08:47;;;;;;;2.70;0.82;;;9.40;73.60;;;;;;5078391;28;20459;-78
2023/04/03 12:11:16;;;;;;;3.45;1.10;;;9.40;72.80;;;;;;5070289;28;20044;-78
2023/04/03 12:13:57;;;;;;;3.47;1.20;;;9.20;67.80;;;;;;5076179;28;20055;-77
2023/04/03 12:16:26;;;;;;;2.55;1.00;;;9.00;70.10;;;;;;5055152;28;20033;-77
2023/04/03 12:18:52;;;;;;;2.58;1.10;;;9.20;78.30;;;;;;5051265;28;20396;-77
2023/04/03 12:21:43;;;;;;;2.83;0.93;;;9.40;78.60;;;;;;5051381;28;20044;-77
2023/04/03 12:24:12;;;;;;;5.22;1.40;;;9.40;72.40;;;;;;5066939;28;20047;-77
2023/04/03 12:27:02;;;;;;;2.78;0.90;;;9.20;73.60;;;;;;5078012;28;20040;-77
2023/04/03 12:29:34;;;;;;;4.38;1.20;;;9.40;78.90;;;;;;5095708;28;20515;-77
2023/04/03 12:32:17;;;;;;;2.97;1.20;;;9.30;74.50;;;;;;5052565;28;20090;-77
2023/04/03 12:35:12;;;;;;;4.72;1.50;;;9.20;72.60;;;;;;5065732;28;20037;-77
2023/04/03 12:37:51;;;;;;;3.35;1.20;;;9.40;79.00;;;;;;5074240;28;20032;-77
2023/04/03 12:40:43;;;;;;;2.92;1.10;;;9.40;77.50;;;;;;5058232;28;20151;-77
2023/04/03 12:43:43;;;;;;;3.83;1.15;;;9.40;79.30;;;;;;5066967;28;20076;-77
2023/04/03 12:46:12;;;;;;;3.78;1.20;;;9.50;80.70;;;;;;5057000;28;20040;-77
2023/04/03 12:48:45;;;;;;;4.43;1.30;;;9.60;81.10;;;;;;5051028;28;20036;-77
2023/04/03 12:51:29;;;;;;;4.10;1.40;;;9.60;71.10;;;;;;5055455;28;20052;-77
2023/04/03 12:54:01;;;;;;;2.70;1.00;;;9.60;74.50;;;;;;5052463;28;20040;-77
2023/04/03 12:56:34;;;;;;;3.58;1.10;;;9.70;77.70;;;;;;5070764;28;20063;-77
2023/04/03 12:59:18;;;;;;;4.43;1.25;;;9.70;73.60;;;;;;5053802;28;20037;-77
2023/04/03 13:01:44;;;;;;;3.55;1.35;;;9.60;64.30;;;;;;5054101;28;20044;-76
2023/04/03 13:04:12;;;;;;;5.97;1.50;;;9.60;67.80;;;;;;5036990;28;20118;-77
2023/04/03 13:06:43;;;;;;;3.05;1.10;;;9.60;74.20;;;;;;5053451;28;20047;-77
2023/04/03 13:09:28;;;;;;;3.33;1.30;;;9.60;74.10;;;;;;5037448;28;20045;-77
2023/04/03 13:12:11;;;;;;;5.38;1.52;;;9.70;77.50;;;;;;5053972;28;20045;-77
2023/04/03 13:14:36;;;;;;;4.25;1.20;;;9.60;67.60;;;;;;5058105;28;20041;-77
2023/04/03 13:17:16;;;;;;;5.13;1.30;;;9.60;71.90;;;;;;5036953;28;20437;-77